Time;durP1;ratioP1;P1;durP2;ratioP2;P2;SDS_P1;SDS_P2;PMS_P1;PMS_P2;Temp;Humidity;BMP_temperature;BMP_pressure;BME280_temperature;BME280_humidity;BME280_pressure;Samples;Min_cycle;Max_cycle;Signal;HPM_P1;HPM_P2
2022/06/25 05:03:40;;;;;;;2.92;1.10;;;16.40;99.90;;;;;;4871112;29;20124;-81
2022/06/25 05:06:11;;;;;;;4.32;1.17;;;16.40;99.90;;;;;;4838399;29;20041;-82
2022/06/25 05:08:37;;;;;;;5.35;1.30;;;16.50;99.90;;;;;;4871527;29;20157;-81
2022/06/25 05:11:04;;;;;;;2.83;1.10;;;16.60;99.90;;;;;;4855751;29;20354;-82
2022/06/25 05:13:30;;;;;;;4.10;1.33;;;16.80;99.90;;;;;;4856598;29;20034;-82
2022/06/25 05:15:56;;;;;;;4.40;1.13;;;16.80;99.90;;;;;;4840998;29;20093;-83
2022/06/25 05:18:22;;;;;;;2.90;1.30;;;16.90;99.90;;;;;;4841308;29;20025;-82
2022/06/25 05:20:48;;;;;;;2.83;1.30;;;16.90;99.90;;;;;;4857037;29;20061;-82
2022/06/25 05:23:14;;;;;;;4.43;1.52;;;17.00;99.90;;;;;;4841528;29;20033;-83
2022/06/25 05:25:41;;;;;;;1.63;0.95;;;17.10;99.90;;;;;;4858093;29;20311;-81
2022/06/25 05:28:07;;;;;;;3.53;1.10;;;17.20;99.90;;;;;;4857107;29;20321;-81
2022/06/25 05:30:34;;;;;;;3.53;1.45;;;17.30;99.90;;;;;;4855321;29;20101;-81
2022/06/25 05:33:02;;;;;;;5.85;1.25;;;17.40;99.90;;;;;;4873170;29;20227;-81
2022/06/25 05:35:28;;;;;;;7.85;1.63;;;17.50;99.90;;;;;;4864866;29;20064;-82
2022/06/25 05:37:54;;;;;;;6.10;1.40;;;17.50;99.90;;;;;;4850009;29;20038;-84
2022/06/25 05:40:19;;;;;;;3.97;1.40;;;17.60;99.90;;;;;;4851293;29;20040;-83
2022/06/25 05:42:46;;;;;;;5.25;1.35;;;17.70;99.90;;;;;;4866279;29;20018;-82
2022/06/25 05:45:12;;;;;;;1.80;1.00;;;17.70;99.90;;;;;;4867905;29;20022;-81
2022/06/25 05:47:39;;;;;;;3.10;1.00;;;17.80;99.90;;;;;;4862729;29;20049;-83
2022/06/25 05:50:06;;;;;;;4.65;1.40;;;17.90;99.90;;;;;;4856544;29;20040;-83
2022/06/25 05:52:34;;;;;;;3.17;1.30;;;18.00;99.90;;;;;;4855793;29;20063;-82
2022/06/25 05:55:00;;;;;;;5.22;1.27;;;18.10;99.90;;;;;;4872862;29;20029;-82
2022/06/25 05:57:26;;;;;;;3.30;1.50;;;18.10;99.90;;;;;;4871395;29;20149;-79
2022/06/25 06:00:03;;;;;;;3.90;1.50;;;18.20;99.90;;;;;;4855883;29;20029;-81
2022/06/25 06:02:38;;;;;;;3.67;1.40;;;18.20;99.90;;;;;;4867272;29;20045;-82
2022/06/25 06:05:04;;;;;;;3.75;1.20;;;18.30;99.90;;;;;;4871286;29;20092;-83
2022/06/25 06:08:06;;;;;;;1.65;0.95;;;18.40;99.90;;;;;;4871791;29;20021;-80
2022/06/25 06:10:32;;;;;;;2.55;1.48;;;18.50;99.90;;;;;;4761183;30;20114;-81
2022/06/25 06:13:34;;;;;;;5.65;1.52;;;18.70;99.90;;;;;;4804435;29;20034;-82
2022/06/25 06:16:26;;;;;;;1.98;0.98;;;18.70;99.90;;;;;;4818522;29;20046;-82
2022/06/25 06:19:12;;;;;;;2.90;1.00;;;18.80;99.90;;;;;;4798481;29;20065;-83
2022/06/25 06:21:38;;;;;;;4.00;1.10;;;18.90;99.90;;;;;;4813684;29;20043;-82
2022/06/25 06:24:13;;;;;;;3.10;0.80;;;19.10;99.90;;;;;;4807423;29;20066;-83
2022/06/25 06:26:39;;;;;;;2.85;0.90;;;19.20;99.90;;;;;;4795023;30;20046;-82
2022/06/25 06:29:05;;;;;;;2.42;0.70;;;19.30;99.90;;;;;;4795663;30;20324;-81
2022/06/25 06:31:43;;;;;;;3.05;0.88;;;19.40;99.90;;;;;;4788895;30;20103;-82
2022/06/25 06:34:09;;;;;;;1.52;0.82;;;19.60;99.90;;;;;;4799456;29;20038;-82
2022/06/25 06:36:34;;;;;;;5.53;0.80;;;19.70;99.90;;;;;;4807123;29;20228;-81
2022/06/25 06:39:01;;;;;;;2.10;0.73;;;19.80;99.90;;;;;;4800503;29;20043;-82
2022/06/25 06:41:32;;;;;;;3.97;0.90;;;19.80;99.90;;;;;;4796970;29;20042;-81
2022/06/25 06:43:58;;;;;;;1.90;0.60;;;19.90;99.90;;;;;;4816667;29;20047;-81
2022/06/25 06:46:24;;;;;;;1.88;0.70;;;20.00;99.90;;;;;;4815812;29;20439;-82
2022/06/25 06:49:02;;;;;;;2.25;0.70;;;20.20;99.90;;;;;;4816431;29;20030;-82
2022/06/25 06:51:27;;;;;;;1.38;0.57;;;20.20;99.90;;;;;;4819225;29;20037;-84
2022/06/25 06:53:53;;;;;;;2.10;0.70;;;20.20;99.90;;;;;;4834921;29;20357;-80
2022/06/25 06:56:19;;;;;;;1.50;0.57;;;20.50;99.90;;;;;;4853595;29;20124;-81
2022/06/25 06:58:44;;;;;;;1.50;0.57;;;20.50;99.90;;;;;;4872413;29;20025;-81
2022/06/25 07:01:10;;;;;;;2.60;0.63;;;20.60;99.90;;;;;;4855583;29;20037;-84
2022/06/25 07:03:36;;;;;;;1.30;0.50;;;20.80;99.90;;;;;;4866052;29;20048;-83
2022/06/25 07:06:02;;;;;;;2.95;0.70;;;20.90;99.90;;;;;;4868284;29;20040;-81
2022/06/25 07:08:27;;;;;;;1.35;0.60;;;21.00;99.90;;;;;;4887672;29;20063;-81
2022/06/25 07:10:53;;;;;;;3.17;0.70;;;21.10;99.90;;;;;;4870458;29;20037;-81
2022/06/25 07:13:22;;;;;;;1.77;0.70;;;21.20;99.90;;;;;;4855819;29;20219;-80
2022/06/25 07:15:48;;;;;;;2.83;0.90;;;21.30;99.90;;;;;;4868243;29;20041;-81
2022/06/25 07:18:13;;;;;;;3.65;0.80;;;21.50;99.90;;;;;;4887083;29;20057;-80
2022/06/25 07:20:40;;;;;;;1.88;0.52;;;21.50;99.90;;;;;;4871204;29;20029;-81
2022/06/25 07:23:31;;;;;;;1.88;0.80;;;21.70;99.90;;;;;;4871408;29;20121;-81
2022/06/25 07:26:03;;;;;;;2.78;0.80;;;21.90;99.90;;;;;;4871533;29;20036;-83
2022/06/25 07:28:28;;;;;;;2.00;0.70;;;22.20;99.90;;;;;;4871629;29;20206;-80
2022/06/25 07:30:54;;;;;;;2.78;1.10;;;22.30;99.90;;;;;;4871170;29;20043;-81
2022/06/25 07:33:20;;;;;;;2.20;0.70;;;22.50;99.90;;;;;;4871104;29;20322;-81
2022/06/25 07:35:49;;;;;;;3.17;0.90;;;22.60;99.60;;;;;;4888325;29;20033;-82
2022/06/25 07:38:33;;;;;;;2.33;0.70;;;22.50;99.30;;;;;;4869719;29;20085;-81
2022/06/25 07:41:00;;;;;;;3.17;1.00;;;22.50;98.80;;;;;;4887993;29;20044;-80
2022/06/25 07:43:33;;;;;;;1.15;0.52;;;22.60;99.40;;;;;;4871162;29;20048;-80
2022/06/25 07:46:00;;;;;;;2.55;0.70;;;22.60;99.40;;;;;;4870994;29;20040;-80
2022/06/25 07:48:26;;;;;;;3.88;0.90;;;22.50;99.20;;;;;;4887504;29;20125;-82
2022/06/25 07:53:36;;;;;;;3.35;0.63;;;22.60;98.70;;;;;;4863140;29;20028;-80
2022/06/25 07:56:02;;;;;;;3.50;0.70;;;22.90;98.50;;;;;;4861927;29;20218;-81
2022/06/25 07:58:28;;;;;;;1.92;0.80;;;23.10;97.90;;;;;;4887093;29;20029;-81
2022/06/25 08:00:54;;;;;;;3.03;1.00;;;23.30;97.10;;;;;;4852357;29;20470;-81
2022/06/25 08:03:20;;;;;;;2.00;0.60;;;23.40;96.70;;;;;;4884803;29;20045;-82
2022/06/25 08:05:47;;;;;;;2.25;1.02;;;23.50;96.40;;;;;;4887234;29;20069;-80
2022/06/25 08:08:13;;;;;;;3.85;0.80;;;23.70;96.60;;;;;;4892275;29;20033;-81
2022/06/25 08:10:40;;;;;;;1.98;0.60;;;24.00;96.10;;;;;;4903365;29;20323;-82
2022/06/25 08:13:06;;;;;;;4.35;1.00;;;24.20;94.70;;;;;;4881971;29;20465;-80
2022/06/25 08:15:32;;;;;;;5.15;0.90;;;24.60;94.20;;;;;;4881310;29;20080;-81
2022/06/25 08:17:58;;;;;;;1.75;1.00;;;25.00;93.80;;;;;;4895332;29;20308;-81
2022/06/25 08:20:24;;;;;;;2.22;0.90;;;25.20;92.90;;;;;;4895478;29;20024;-84
2022/06/25 08:22:49;;;;;;;1.90;0.70;;;25.40;92.80;;;;;;4884713;29;20064;-82
2022/06/25 08:25:15;;;;;;;4.43;0.82;;;25.50;92.00;;;;;;4909400;29;20036;-82
2022/06/25 08:27:52;;;;;;;1.70;0.80;;;25.70;91.30;;;;;;4899512;29;20048;-79
2022/06/25 08:30:18;;;;;;;4.85;0.90;;;25.90;91.10;;;;;;4905227;29;20041;-81
2022/06/25 08:32:44;;;;;;;3.60;1.08;;;25.80;90.50;;;;;;4860679;29;20214;-82
2022/06/25 08:35:11;;;;;;;3.25;0.90;;;25.60;88.70;;;;;;4891055;29;20100;-82
2022/06/25 08:37:44;;;;;;;1.55;0.70;;;25.70;90.40;;;;;;4879030;29;20104;-82
2022/06/25 08:40:13;;;;;;;2.65;0.90;;;25.70;89.80;;;;;;4901233;29;20056;-82
2022/06/25 08:42:41;;;;;;;1.77;0.70;;;25.50;89.30;;;;;;4901177;29;20327;-82
2022/06/25 08:45:07;;;;;;;2.07;1.00;;;25.50;89.70;;;;;;4890292;29;20029;-82
2022/06/25 08:47:33;;;;;;;2.67;1.10;;;25.50;89.00;;;;;;4899495;29;20450;-82
2022/06/25 08:50:05;;;;;;;3.53;1.02;;;25.60;87.80;;;;;;4876457;29;20033;-82
2022/06/25 08:52:32;;;;;;;4.28;1.05;;;25.50;86.60;;;;;;4896586;29;20029;-82
2022/06/25 08:55:25;;;;;;;3.53;1.10;;;25.70;87.40;;;;;;4890877;29;20040;-83
2022/06/25 08:57:51;;;;;;;3.70;1.02;;;25.60;87.30;;;;;;4890894;29;20037;-82
2022/06/25 09:00:48;;;;;;;2.45;0.80;;;25.80;86.70;;;;;;4890964;29;20088;-81
2022/06/25 09:06:40;;;;;;;2.53;1.00;;;26.30;87.00;;;;;;4891735;29;20267;-82
2022/06/25 09:09:16;;;;;;;2.05;0.68;;;26.30;85.30;;;;;;4875118;29;20049;-84
2022/06/25 09:11:50;;;;;;;2.70;0.73;;;26.30;84.20;;;;;;4883618;29;20036;-82
2022/06/25 09:14:29;;;;;;;2.20;0.73;;;26.20;82.80;;;;;;4868280;29;20214;-82
2022/06/25 09:17:29;;;;;;;2.58;0.90;;;25.70;83.40;;;;;;4878103;29;20035;-82
2022/06/25 09:19:57;;;;;;;2.88;1.00;;;25.50;84.00;;;;;;4881317;29;20047;-82
2022/06/25 09:22:24;;;;;;;1.83;0.68;;;25.50;84.60;;;;;;4910165;29;20024;-80
2022/06/25 09:24:54;;;;;;;3.60;0.95;;;25.80;85.60;;;;;;4893586;29;20299;-78
2022/06/25 09:27:33;;;;;;;2.58;0.98;;;25.80;84.80;;;;;;4909712;29;20029;-79
2022/06/25 09:30:08;;;;;;;4.18;0.90;;;25.70;83.00;;;;;;4891020;29;20340;-82
2022/06/25 09:33:03;;;;;;;2.45;0.80;;;25.70;83.80;;;;;;4857068;29;20045;-80
2022/06/25 09:35:36;;;;;;;2.45;0.60;;;25.50;83.30;;;;;;4890594;29;20072;-79
2022/06/25 09:38:19;;;;;;;2.20;0.80;;;25.60;84.10;;;;;;4897357;29;20024;-80
2022/06/25 09:40:59;;;;;;;2.85;0.88;;;25.80;85.30;;;;;;4892988;29;20041;-78
2022/06/25 09:43:27;;;;;;;4.57;0.70;;;25.90;82.30;;;;;;4898724;29;20028;-80
2022/06/25 09:45:54;;;;;;;;;;;26.10;83.80;;;;;;4899492;29;20065;-82
2022/06/25 09:48:23;;;;;;;2.08;0.90;;;25.90;84.50;;;;;;4883111;29;19904;-79
2022/06/25 09:51:23;;;;;;;3.42;0.80;;;25.80;84.00;;;;;;4905505;29;20044;-79
2022/06/25 09:54:00;;;;;;;2.97;0.70;;;25.90;84.00;;;;;;4882574;29;20096;-79
2022/06/25 09:56:27;;;;;;;2.03;0.90;;;26.00;83.50;;;;;;4908622;29;20048;-78
2022/06/25 09:58:55;;;;;;;3.70;0.80;;;26.10;83.10;;;;;;4857109;29;20041;-80
2022/06/25 10:01:41;;;;;;;2.28;0.85;;;26.10;83.80;;;;;;4869318;29;20050;-81
2022/06/25 10:04:10;;;;;;;1.50;0.68;;;26.10;82.90;;;;;;4869871;29;20045;-81
2022/06/25 10:06:38;;;;;;;2.53;0.82;;;26.10;82.50;;;;;;4854160;29;20033;-80
2022/06/25 10:09:06;;;;;;;1.38;0.50;;;25.70;81.10;;;;;;4870115;29;20047;-80
2022/06/25 10:11:34;;;;;;;2.10;0.60;;;25.80;82.30;;;;;;4861061;29;20049;-80
2022/06/25 10:14:00;;;;;;;2.67;0.77;;;25.90;83.70;;;;;;4859250;29;20044;-81
2022/06/25 10:16:28;;;;;;;1.40;0.70;;;25.70;82.20;;;;;;4839387;29;20049;-80
2022/06/25 10:18:54;;;;;;;2.60;0.90;;;25.60;82.90;;;;;;4843943;29;20056;-80
2022/06/25 10:21:22;;;;;;;3.70;0.75;;;25.70;82.70;;;;;;4859593;29;20070;-80
2022/06/25 10:23:52;;;;;;;1.77;0.70;;;25.60;82.50;;;;;;4847841;29;20155;-81
2022/06/25 10:26:19;;;;;;;2.33;0.98;;;25.70;83.20;;;;;;4847750;29;20063;-83
2022/06/25 10:28:46;;;;;;;4.70;1.05;;;25.80;83.50;;;;;;4837886;29;20032;-80
2022/06/25 10:31:15;;;;;;;2.63;0.70;;;25.80;81.90;;;;;;4872776;29;20043;-79
2022/06/25 10:34:13;;;;;;;1.80;0.88;;;25.90;82.90;;;;;;4889427;29;20052;-80
2022/06/25 10:36:40;;;;;;;;;;;26.10;82.50;;;;;;4875648;29;20036;-79
2022/06/25 10:39:25;;;;;;;2.92;1.17;;;26.30;83.00;;;;;;4889932;29;19903;-79
2022/06/25 10:45:07;;;;;;;2.80;1.33;;;26.60;81.80;;;;;;4908355;29;20036;-79
2022/06/25 10:47:41;;;;;;;4.97;1.13;;;26.80;81.60;;;;;;4890572;29;20040;-79
2022/06/25 10:50:30;;;;;;;3.55;0.85;;;26.50;81.10;;;;;;4908295;29;20036;-78
2022/06/25 10:53:05;;;;;;;4.85;1.17;;;26.60;79.60;;;;;;4879862;29;20045;-81
2022/06/25 10:55:58;;;;;;;2.72;0.90;;;26.70;79.80;;;;;;4906805;29;20038;-81
2022/06/25 10:58:26;;;;;;;1.67;0.60;;;26.80;78.90;;;;;;4908264;29;20056;-79
2022/06/25 11:01:00;;;;;;;1.92;0.88;;;26.80;79.40;;;;;;4890269;29;20036;-78
2022/06/25 11:03:32;;;;;;;3.03;0.98;;;26.20;79.60;;;;;;4891082;29;20048;-79
2022/06/25 11:06:19;;;;;;;2.75;0.80;;;26.30;78.80;;;;;;4873419;29;20040;-79
2022/06/25 11:08:45;;;;;;;2.40;0.80;;;26.50;79.40;;;;;;4890640;29;20099;-82
2022/06/25 11:11:12;;;;;;;2.58;0.70;;;26.80;78.60;;;;;;4907226;29;20108;-80
2022/06/25 11:14:10;;;;;;;2.30;1.05;;;27.00;76.60;;;;;;4890579;29;20028;-81
2022/06/25 11:16:36;;;;;;;1.58;0.75;;;27.20;76.90;;;;;;4877191;29;20035;-79
2022/06/25 11:19:02;;;;;;;3.33;0.93;;;27.30;76.10;;;;;;4907715;29;20020;-80
2022/06/25 11:21:36;;;;;;;1.85;0.77;;;27.40;77.60;;;;;;4883515;29;20243;-81
2022/06/25 11:24:22;;;;;;;2.80;0.93;;;27.70;76.00;;;;;;4890522;29;20075;-80
2022/06/25 11:29:49;;;;;;;4.20;1.13;;;28.40;74.40;;;;;;4907329;29;20032;-79
2022/06/25 11:32:20;;;;;;;2.20;1.00;;;28.50;73.20;;;;;;4904270;29;20056;-81
2022/06/25 11:34:51;;;;;;;1.75;0.80;;;28.50;72.30;;;;;;4890319;29;20036;-81
2022/06/25 11:37:18;;;;;;;3.17;0.98;;;28.30;73.10;;;;;;4889971;29;20028;-79
2022/06/25 11:40:15;;;;;;;2.63;1.25;;;28.20;73.90;;;;;;4875256;29;20076;-83
2022/06/25 11:42:43;;;;;;;9.37;1.37;;;27.80;72.60;;;;;;4908610;29;20105;-79
2022/06/25 11:45:09;;;;;;;3.05;0.82;;;27.60;74.30;;;;;;4888233;29;20025;-79
2022/06/25 11:47:38;;;;;;;2.88;0.70;;;27.30;72.70;;;;;;4893064;29;20054;-78
2022/06/25 11:50:11;;;;;;;3.60;1.05;;;27.90;72.20;;;;;;4895275;29;20025;-78
2022/06/25 11:52:44;;;;;;;2.22;0.90;;;28.80;70.40;;;;;;4874399;29;20044;-80
2022/06/25 11:55:11;;;;;;;2.78;1.00;;;29.80;68.60;;;;;;4871523;29;20353;-81
2022/06/25 11:57:43;;;;;;;2.28;0.60;;;30.90;68.90;;;;;;4891853;29;20084;-81
2022/06/25 12:00:13;;;;;;;4.22;0.80;;;32.40;64.80;;;;;;4889716;29;20040;-82
2022/06/25 12:02:43;;;;;;;1.67;0.68;;;33.60;63.20;;;;;;4906562;29;20063;-80
2022/06/25 12:05:10;;;;;;;1.58;0.60;;;34.40;61.70;;;;;;4907426;29;20043;-82
2022/06/25 12:07:37;;;;;;;1.17;0.43;;;35.50;59.20;;;;;;4874631;29;20218;-80
2022/06/25 12:10:15;;;;;;;1.95;0.50;;;36.20;57.90;;;;;;4906987;29;20051;-81
2022/06/25 12:12:42;;;;;;;3.85;0.70;;;37.30;56.10;;;;;;4889606;29;20044;-77
2022/06/25 12:15:11;;;;;;;2.80;0.60;;;36.40;55.90;;;;;;4906338;29;20211;-78
2022/06/25 12:17:39;;;;;;;2.40;0.60;;;35.80;55.60;;;;;;4885600;29;20314;-80
2022/06/25 12:20:13;;;;;;;2.40;0.40;;;36.40;54.30;;;;;;4891037;29;20095;-79
2022/06/25 12:22:46;;;;;;;1.63;0.70;;;37.40;53.10;;;;;;4889244;29;20308;-80
2022/06/25 12:25:22;;;;;;;1.45;0.60;;;37.90;52.90;;;;;;4874695;29;20035;-78
2022/06/25 12:27:50;;;;;;;1.40;0.50;;;38.60;52.00;;;;;;4906257;29;20028;-79
2022/06/25 12:30:35;;;;;;;1.98;0.40;;;39.50;52.30;;;;;;4906259;29;20041;-79
2022/06/25 12:33:15;;;;;;;1.55;0.45;;;39.90;51.40;;;;;;4875032;29;20043;-80
2022/06/25 12:35:42;;;;;;;2.22;0.57;;;40.20;50.30;;;;;;4906212;29;20037;-80
2022/06/25 12:38:10;;;;;;;1.92;0.60;;;39.90;50.50;;;;;;4889661;29;20045;-80
2022/06/25 12:40:55;;;;;;;1.98;0.77;;;40.50;49.80;;;;;;4906279;29;20088;-80
2022/06/25 12:43:21;;;;;;;1.50;0.40;;;40.80;48.80;;;;;;4870769;29;20045;-79
2022/06/25 12:45:48;;;;;;;3.38;0.47;;;41.30;48.10;;;;;;4884264;29;20108;-80
2022/06/25 12:48:34;;;;;;;2.00;0.38;;;41.70;48.30;;;;;;4886369;29;20108;-80
2022/06/25 12:51:11;;;;;;;2.23;0.77;;;41.70;46.10;;;;;;4886195;29;20124;-79
2022/06/25 12:53:37;;;;;;;1.70;0.35;;;40.50;46.90;;;;;;4870425;29;20097;-79
2022/06/25 12:56:18;;;;;;;2.40;0.60;;;40.80;46.90;;;;;;4885901;29;20056;-80
2022/06/25 12:58:46;;;;;;;1.77;1.00;;;41.30;47.50;;;;;;4884186;29;20033;-80
2022/06/25 13:01:21;;;;;;;2.17;0.40;;;41.90;47.30;;;;;;4851494;29;20101;-80
2022/06/25 13:03:47;;;;;;;1.45;0.32;;;42.40;45.40;;;;;;4867132;29;20054;-79
2022/06/25 13:06:14;;;;;;;1.20;0.40;;;42.80;45.40;;;;;;4867678;29;20096;-80
2022/06/25 13:08:43;;;;;;;1.73;0.40;;;44.00;46.60;;;;;;4854531;29;20061;-80
2022/06/25 13:11:19;;;;;;;1.70;0.35;;;45.00;44.60;;;;;;4870899;29;20061;-80
2022/06/25 13:13:46;;;;;;;2.55;0.50;;;43.60;45.30;;;;;;4863213;29;20207;-78
2022/06/25 13:16:13;;;;;;;1.25;0.40;;;44.90;44.40;;;;;;4909310;29;20041;-79
2022/06/25 13:18:43;;;;;;;1.90;0.43;;;45.40;43.40;;;;;;4892819;29;20024;-79
2022/06/25 13:21:09;;;;;;;1.63;0.52;;;44.70;43.40;;;;;;4908863;29;20056;-79
2022/06/25 13:23:35;;;;;;;0.98;0.50;;;43.10;44.90;;;;;;4909355;29;20230;-81
2022/06/25 13:26:00;;;;;;;2.53;0.50;;;43.40;45.30;;;;;;4910092;29;20028;-79
2022/06/25 13:28:26;;;;;;;2.75;0.50;;;43.10;44.40;;;;;;4909777;29;20199;-79
2022/06/25 13:30:52;;;;;;;2.67;0.70;;;44.80;44.10;;;;;;4908771;29;20055;-79
2022/06/25 13:33:21;;;;;;;1.35;0.40;;;45.00;42.90;;;;;;4909725;29;20103;-78
2022/06/25 13:35:47;;;;;;;1.00;0.40;;;44.30;45.10;;;;;;4908887;29;20037;-77
2022/06/25 13:38:12;;;;;;;2.93;0.40;;;46.50;44.40;;;;;;4909600;29;20028;-76
2022/06/25 13:40:38;;;;;;;1.87;0.70;;;48.10;41.90;;;;;;4908445;29;20036;-78
2022/06/25 13:43:05;;;;;;;2.63;0.50;;;48.40;41.80;;;;;;4909331;29;20087;-79
2022/06/25 13:45:31;;;;;;;1.20;0.35;;;48.00;40.60;;;;;;4908828;29;20262;-77
2022/06/25 13:47:56;;;;;;;0.93;0.30;;;47.20;41.10;;;;;;4909175;29;20052;-79
2022/06/25 13:50:38;;;;;;;;;;;;;;;;;;;;;
2022/06/25 13:53:06;;;;;;;1.23;0.40;;;47.60;39.40;;;;;;4911112;29;20100;-77
2022/06/25 13:55:33;;;;;;;1.27;0.40;;;46.30;40.30;;;;;;4911181;29;20024;-81
2022/06/25 13:57:58;;;;;;;2.50;0.40;;;42.60;42.20;;;;;;4909102;29;20020;-79
2022/06/25 14:00:24;;;;;;;1.30;0.40;;;42.10;42.70;;;;;;4908688;29;20045;-80
2022/06/25 14:02:50;;;;;;;0.60;0.28;;;40.50;44.30;;;;;;4908138;29;20068;-79
2022/06/25 14:05:16;;;;;;;2.83;0.57;;;38.70;47.10;;;;;;4909570;29;20048;-79
2022/06/25 14:07:42;;;;;;;1.05;0.40;;;39.50;45.20;;;;;;4908293;29;20048;-79
2022/06/25 14:10:10;;;;;;;1.70;0.30;;;40.30;44.40;;;;;;4910411;29;20063;-77
2022/06/25 14:12:36;;;;;;;0.93;0.30;;;42.40;44.10;;;;;;4883544;29;20043;-79
2022/06/25 14:15:02;;;;;;;0.85;0.10;;;43.20;40.60;;;;;;4913722;29;20048;-79
2022/06/25 14:17:28;;;;;;;1.10;0.30;;;44.10;40.60;;;;;;4883819;29;20037;-79
2022/06/25 14:19:54;;;;;;;0.60;0.20;;;45.40;38.90;;;;;;4887589;29;20410;-77
2022/06/25 14:22:19;;;;;;;0.98;0.30;;;46.00;39.80;;;;;;4887707;29;20068;-79
2022/06/25 14:25:45;;;;;;;1.23;0.33;;;46.90;39.60;;;;;;4888357;29;20040;-79
2022/06/25 14:27:40;;;;;;;1.00;0.30;;;47.60;38.30;;;;;;4864921;29;20037;-81
2022/06/25 14:30:06;;;;;;;1.00;0.33;;;47.10;39.30;;;;;;4888110;29;20314;-80
2022/06/25 14:32:32;;;;;;;0.95;0.40;;;47.70;39.30;;;;;;4887877;29;20056;-78
2022/06/25 14:34:57;;;;;;;0.73;0.37;;;47.30;38.90;;;;;;4887689;29;20064;-81
2022/06/25 14:42:53;;;;;;;2.72;0.40;;;47.60;39.80;;;;;;4887368;29;20060;-82
2022/06/25 14:45:20;;;;;;;1.05;0.40;;;49.80;38.70;;;;;;4887298;29;20104;-79
2022/06/25 14:47:45;;;;;;;1.83;0.50;;;51.10;38.50;;;;;;4888001;29;20052;-77
2022/06/25 14:50:12;;;;;;;0.73;0.40;;;51.60;37.10;;;;;;4888322;29;20032;-79
2022/06/25 14:52:38;;;;;;;1.63;0.55;;;50.40;37.40;;;;;;4889258;29;20033;-80
2022/06/25 14:55:05;;;;;;;1.95;0.50;;;50.20;38.00;;;;;;4889298;29;20041;-79
2022/06/25 14:57:31;;;;;;;2.75;0.50;;;49.40;38.10;;;;;;4874663;29;20032;-79
2022/06/25 14:59:57;;;;;;;2.00;0.52;;;50.60;38.60;;;;;;4891616;29;20224;-77
2022/06/25 15:02:23;;;;;;;1.10;0.40;;;49.80;37.70;;;;;;4883271;29;20065;-79
2022/06/25 15:04:49;;;;;;;2.20;0.60;;;48.70;38.30;;;;;;4890591;29;20029;-79
2022/06/25 15:07:15;;;;;;;1.00;0.40;;;48.20;39.00;;;;;;4890718;29;20041;-79
2022/06/25 15:09:41;;;;;;;1.38;0.30;;;47.90;39.00;;;;;;4889106;29;20077;-79
2022/06/25 15:12:07;;;;;;;1.20;0.50;;;48.00;39.20;;;;;;4901942;29;20031;-79
2022/06/25 15:14:32;;;;;;;1.13;0.40;;;48.00;40.80;;;;;;4907844;29;20421;-78
2022/06/25 15:16:58;;;;;;;0.60;0.30;;;48.20;39.50;;;;;;4906802;29;20073;-80
2022/06/25 15:19:24;;;;;;;1.60;0.57;;;48.50;39.30;;;;;;4907724;29;20055;-78
2022/06/25 15:21:50;;;;;;;1.40;0.50;;;47.80;39.30;;;;;;4906919;29;20044;-77
2022/06/25 15:24:15;;;;;;;1.13;0.50;;;46.50;40.30;;;;;;4891309;29;20035;-79
2022/06/25 15:26:41;;;;;;;0.80;0.40;;;45.60;40.10;;;;;;4906978;29;20040;-79
2022/06/25 15:29:07;;;;;;;1.50;0.60;;;46.10;40.50;;;;;;4891267;29;20341;-79
2022/06/25 15:31:33;;;;;;;2.60;0.60;;;45.10;40.10;;;;;;4889695;29;20149;-79
2022/06/25 15:33:59;;;;;;;1.88;0.43;;;45.50;40.30;;;;;;4890386;29;20215;-79
2022/06/25 15:36:25;;;;;;;0.95;0.40;;;45.70;40.00;;;;;;4907507;29;20040;-80
2022/06/25 15:38:51;;;;;;;0.90;0.20;;;46.70;40.30;;;;;;4890378;29;20032;-79
2022/06/25 15:41:17;;;;;;;1.97;0.60;;;48.10;40.50;;;;;;4907171;29;20028;-79
2022/06/25 15:43:43;;;;;;;2.10;0.50;;;49.40;39.10;;;;;;4906620;29;20043;-79
2022/06/25 15:46:09;;;;;;;1.30;0.40;;;49.90;38.40;;;;;;4906741;29;20119;-79
2022/06/25 15:48:35;;;;;;;0.75;0.40;;;49.60;38.20;;;;;;4907333;29;20133;-77
2022/06/25 15:51:03;;;;;;;1.67;0.55;;;50.30;37.80;;;;;;4891146;29;20056;-79
2022/06/25 15:53:29;;;;;;;1.13;0.47;;;50.40;38.60;;;;;;4905538;29;20058;-78
2022/06/25 15:55:55;;;;;;;0.83;0.47;;;51.00;37.90;;;;;;4905644;29;20088;-78
2022/06/25 15:58:23;;;;;;;1.47;0.60;;;50.60;38.10;;;;;;4906006;29;20063;-81
2022/06/25 16:00:49;;;;;;;1.60;0.47;;;49.10;37.60;;;;;;4905315;29;20129;-79
2022/06/25 16:03:15;;;;;;;2.30;0.43;;;48.60;38.60;;;;;;4905574;29;20330;-79
2022/06/25 16:05:41;;;;;;;1.23;0.40;;;48.00;38.40;;;;;;4905505;29;20075;-78
2022/06/25 16:08:07;;;;;;;2.25;0.50;;;47.60;38.80;;;;;;4889377;29;20104;-78
2022/06/25 16:10:33;;;;;;;1.87;0.90;;;46.90;39.10;;;;;;4905878;29;20057;-80
2022/06/25 16:12:59;;;;;;;1.00;0.30;;;45.80;39.80;;;;;;4905517;29;20080;-79
2022/06/25 16:15:25;;;;;;;1.23;0.32;;;45.10;40.40;;;;;;4905322;29;20258;-80
2022/06/25 16:17:51;;;;;;;1.63;0.50;;;45.10;40.40;;;;;;4903312;29;20020;-78
2022/06/25 16:20:17;;;;;;;5.03;0.80;;;44.20;41.20;;;;;;4904668;29;20321;-78
2022/06/25 16:22:43;;;;;;;1.60;0.60;;;42.80;41.90;;;;;;4905237;29;20039;-79
2022/06/25 16:25:09;;;;;;;1.33;0.55;;;41.60;43.30;;;;;;4888121;29;20028;-80
2022/06/25 16:27:36;;;;;;;0.88;0.50;;;39.90;44.20;;;;;;4881070;29;20097;-79
2022/06/25 16:30:03;;;;;;;1.83;0.60;;;38.60;45.50;;;;;;4869893;29;20218;-79
2022/06/25 16:32:30;;;;;;;1.50;0.60;;;38.80;46.00;;;;;;4886439;29;20349;-79
2022/06/25 16:34:55;;;;;;;1.55;0.70;;;38.30;46.80;;;;;;4885799;29;20311;-78
2022/06/25 16:37:21;;;;;;;1.48;0.70;;;37.30;46.80;;;;;;4871042;29;20069;-79
2022/06/25 16:39:47;;;;;;;0.93;0.47;;;36.50;47.50;;;;;;4885911;29;20064;-77
2022/06/25 16:42:13;;;;;;;1.52;0.75;;;35.50;48.30;;;;;;4887382;29;20104;-79
2022/06/25 16:44:39;;;;;;;2.22;0.57;;;35.00;49.10;;;;;;4898814;29;20035;-79
2022/06/25 16:47:05;;;;;;;1.50;0.80;;;36.40;48.40;;;;;;4891951;29;20044;-79
2022/06/25 16:49:31;;;;;;;1.67;0.50;;;38.50;46.40;;;;;;4876970;29;20040;-78
2022/06/25 16:51:59;;;;;;;1.60;0.52;;;39.80;45.10;;;;;;4892674;29;20087;-80
2022/06/25 16:54:27;;;;;;;2.88;0.60;;;40.20;44.40;;;;;;4892856;29;20013;-78
2022/06/25 16:56:54;;;;;;;1.38;0.43;;;40.20;44.40;;;;;;4905957;29;20052;-78
2022/06/25 16:59:21;;;;;;;0.75;0.30;;;40.40;44.40;;;;;;4902818;29;20077;-81
2022/06/25 17:01:48;;;;;;;2.22;0.88;;;40.70;43.80;;;;;;4900602;29;20063;-80
2022/06/25 17:04:15;;;;;;;3.00;0.70;;;39.60;44.50;;;;;;4884036;29;20037;-78
2022/06/25 17:06:41;;;;;;;2.65;0.70;;;38.80;45.60;;;;;;4885277;29;20341;-79
2022/06/25 17:09:07;;;;;;;2.50;0.80;;;38.40;46.10;;;;;;4901227;29;20053;-79
2022/06/25 17:11:33;;;;;;;2.33;0.57;;;37.40;47.00;;;;;;4899359;29;20035;-79
2022/06/25 17:14:00;;;;;;;1.88;0.80;;;37.90;46.70;;;;;;4908717;29;20036;-80
2022/06/25 17:16:26;;;;;;;1.42;0.63;;;37.80;46.60;;;;;;4891921;29;20390;-81
2022/06/25 17:18:52;;;;;;;1.42;0.60;;;37.80;46.30;;;;;;4908391;29;20056;-80
2022/06/25 17:21:18;;;;;;;1.90;0.60;;;38.20;45.80;;;;;;4891948;29;20222;-78
2022/06/25 17:23:47;;;;;;;2.00;0.60;;;38.20;45.60;;;;;;4908286;29;20079;-77
2022/06/25 17:26:14;;;;;;;2.00;0.60;;;36.70;47.20;;;;;;4872684;29;20021;-80
2022/06/25 17:28:40;;;;;;;1.65;0.95;;;35.20;48.90;;;;;;4890298;29;20028;-79
2022/06/25 17:31:07;;;;;;;1.98;1.13;;;33.70;50.90;;;;;;4889270;29;20052;-82
2022/06/25 17:33:34;;;;;;;2.70;1.42;;;32.70;52.40;;;;;;4890071;29;20104;-82
2022/06/25 17:36:01;;;;;;;2.67;1.10;;;32.10;52.90;;;;;;4888959;29;20318;-79
2022/06/25 17:38:27;;;;;;;3.47;1.30;;;32.90;52.20;;;;;;4858876;29;20080;-80
2022/06/25 17:40:54;;;;;;;2.55;0.77;;;33.30;51.50;;;;;;4889585;29;20466;-81
2022/06/25 17:43:27;;;;;;;2.67;0.70;;;32.70;52.10;;;;;;4858152;29;20033;-80
2022/06/25 17:45:55;;;;;;;1.85;0.68;;;31.90;53.10;;;;;;4873309;29;20077;-80
2022/06/25 17:48:29;;;;;;;1.08;0.57;;;31.50;54.40;;;;;;4891759;29;20025;-79
2022/06/25 17:50:57;;;;;;;2.15;0.70;;;32.10;54.20;;;;;;4907755;29;20103;-81
2022/06/25 17:53:24;;;;;;;1.67;0.73;;;33.30;52.10;;;;;;4908322;29;20171;-81
2022/06/25 17:55:59;;;;;;;1.27;0.75;;;33.50;52.00;;;;;;4907898;29;20084;-79
2022/06/25 17:58:28;;;;;;;1.98;0.80;;;33.10;52.40;;;;;;4908190;29;20040;-79
2022/06/25 18:01:01;;;;;;;2.20;1.00;;;33.30;52.80;;;;;;4890443;29;20055;-79
2022/06/25 18:03:27;;;;;;;1.77;0.95;;;34.10;51.80;;;;;;4875852;29;20048;-81
2022/06/25 18:05:53;;;;;;;2.20;0.90;;;35.70;51.10;;;;;;4907844;29;20032;-80
2022/06/25 18:08:19;;;;;;;2.90;0.80;;;37.20;48.40;;;;;;4903285;29;20338;-80
2022/06/25 18:10:44;;;;;;;2.15;0.90;;;37.10;47.70;;;;;;4907347;29;20032;-78
2022/06/25 18:13:28;;;;;;;2.90;1.08;;;36.20;48.60;;;;;;4907918;29;20092;-79
2022/06/25 18:19:35;;;;;;;3.35;1.10;;;35.10;50.70;;;;;;4827109;29;20094;-78
2022/06/25 18:25:29;;;;;;;3.25;0.90;;;33.80;51.30;;;;;;4830904;29;20240;-78
2022/06/25 18:27:55;;;;;;;3.65;0.70;;;32.90;52.70;;;;;;4830609;29;20038;-77